sensor_id;sensor_type;location;lat;lon;timestamp;P1;durP1;ratioP1;P2;durP2;ratioP2
74624;SDS011;63131;52.298;8.056;2022-12-22T00:02:26;12.35;;;6.75;;
74624;SDS011;63131;52.298;8.056;2022-12-22T00:08:01;12.85;;;6.45;;
74624;SDS011;63131;52.298;8.056;2022-12-22T00:10:45;13.23;;;6.50;;
74624;SDS011;63131;52.298;8.056;2022-12-22T00:13:30;11.75;;;6.30;;
74624;SDS011;63131;52.298;8.056;2022-12-22T00:16:13;15.85;;;7.22;;
74624;SDS011;63131;52.298;8.056;2022-12-22T00:18:58;15.05;;;7.18;;
74624;SDS011;63131;52.298;8.056;2022-12-22T00:21:41;13.65;;;7.28;;
74624;SDS011;63131;52.298;8.056;2022-12-22T00:24:25;14.32;;;7.28;;
74624;SDS011;63131;52.298;8.056;2022-12-22T00:27:13;14.00;;;7.13;;
74624;SDS011;63131;52.298;8.056;2022-12-22T00:30:00;15.73;;;7.28;;
74624;SDS011;63131;52.298;8.056;2022-12-22T00:32:45;14.48;;;7.43;;
74624;SDS011;63131;52.298;8.056;2022-12-22T00:35:29;15.18;;;7.43;;
74624;SDS011;63131;52.298;8.056;2022-12-22T00:38:17;13.02;;;7.55;;
74624;SDS011;63131;52.298;8.056;2022-12-22T00:41:02;11.77;;;6.10;;
74624;SDS011;63131;52.298;8.056;2022-12-22T00:43:47;13.90;;;7.03;;
74624;SDS011;63131;52.298;8.056;2022-12-22T00:46:31;13.95;;;8.02;;
74624;SDS011;63131;52.298;8.056;2022-12-22T00:49:16;13.15;;;7.40;;
74624;SDS011;63131;52.298;8.056;2022-12-22T00:52:00;13.85;;;7.28;;
74624;SDS011;63131;52.298;8.056;2022-12-22T00:54:44;13.82;;;7.55;;
74624;SDS011;63131;52.298;8.056;2022-12-22T00:57:28;14.02;;;7.38;;
74624;SDS011;63131;52.298;8.056;2022-12-22T01:00:16;14.52;;;7.55;;
74624;SDS011;63131;52.298;8.056;2022-12-22T01:03:01;13.77;;;7.90;;
74624;SDS011;63131;52.298;8.056;2022-12-22T01:05:46;15.63;;;8.07;;
74624;SDS011;63131;52.298;8.056;2022-12-22T01:08:30;14.00;;;8.00;;
74624;SDS011;63131;52.298;8.056;2022-12-22T01:11:15;15.18;;;8.57;;
74624;SDS011;63131;52.298;8.056;2022-12-22T01:13:59;15.20;;;8.60;;
74624;SDS011;63131;52.298;8.056;2022-12-22T01:16:43;13.93;;;7.40;;
74624;SDS011;63131;52.298;8.056;2022-12-22T01:19:27;17.10;;;8.15;;
74624;SDS011;63131;52.298;8.056;2022-12-22T01:22:11;15.35;;;7.90;;
74624;SDS011;63131;52.298;8.056;2022-12-22T01:24:57;16.23;;;8.82;;
74624;SDS011;63131;52.298;8.056;2022-12-22T01:27:41;16.63;;;8.13;;
74624;SDS011;63131;52.298;8.056;2022-12-22T01:30:25;15.68;;;8.90;;
74624;SDS011;63131;52.298;8.056;2022-12-22T01:33:12;17.00;;;9.20;;
74624;SDS011;63131;52.298;8.056;2022-12-22T01:35:56;17.13;;;8.95;;
74624;SDS011;63131;52.298;8.056;2022-12-22T01:38:40;19.13;;;9.65;;
74624;SDS011;63131;52.298;8.056;2022-12-22T01:41:24;16.45;;;8.98;;
74624;SDS011;63131;52.298;8.056;2022-12-22T01:44:12;15.98;;;8.52;;
74624;SDS011;63131;52.298;8.056;2022-12-22T01:50:23;18.88;;;9.50;;
74624;SDS011;63131;52.298;8.056;2022-12-22T01:53:11;16.70;;;8.77;;
74624;SDS011;63131;52.298;8.056;2022-12-22T01:55:58;17.27;;;9.10;;
74624;SDS011;63131;52.298;8.056;2022-12-22T01:58:44;16.73;;;8.32;;
74624;SDS011;63131;52.298;8.056;2022-12-22T02:01:30;17.50;;;9.40;;
74624;SDS011;63131;52.298;8.056;2022-12-22T02:04:15;16.92;;;8.73;;
74624;SDS011;63131;52.298;8.056;2022-12-22T02:07:03;17.58;;;8.70;;
74624;SDS011;63131;52.298;8.056;2022-12-22T02:09:57;17.98;;;8.60;;
74624;SDS011;63131;52.298;8.056;2022-12-22T02:12:52;17.38;;;9.63;;
74624;SDS011;63131;52.298;8.056;2022-12-22T02:15:41;20.98;;;10.00;;
74624;SDS011;63131;52.298;8.056;2022-12-22T02:21:25;18.23;;;8.57;;
74624;SDS011;63131;52.298;8.056;2022-12-22T02:24:18;17.08;;;8.68;;
74624;SDS011;63131;52.298;8.056;2022-12-22T02:27:11;15.80;;;8.00;;
74624;SDS011;63131;52.298;8.056;2022-12-22T02:29:57;16.90;;;8.07;;
74624;SDS011;63131;52.298;8.056;2022-12-22T02:32:44;17.90;;;8.45;;
74624;SDS011;63131;52.298;8.056;2022-12-22T02:35:30;15.82;;;8.23;;
74624;SDS011;63131;52.298;8.056;2022-12-22T02:47:27;21.00;;;10.93;;
74624;SDS011;63131;52.298;8.056;2022-12-22T02:53:02;18.15;;;9.50;;
74624;SDS011;63131;52.298;8.056;2022-12-22T02:55:46;16.38;;;9.05;;
74624;SDS011;63131;52.298;8.056;2022-12-22T02:58:31;19.08;;;9.23;;
74624;SDS011;63131;52.298;8.056;2022-12-22T03:01:19;18.50;;;9.55;;
74624;SDS011;63131;52.298;8.056;2022-12-22T03:04:08;17.55;;;10.55;;
74624;SDS011;63131;52.298;8.056;2022-12-22T03:06:52;17.83;;;9.65;;
74624;SDS011;63131;52.298;8.056;2022-12-22T03:09:36;19.73;;;9.75;;
74624;SDS011;63131;52.298;8.056;2022-12-22T03:12:20;18.67;;;9.25;;
74624;SDS011;63131;52.298;8.056;2022-12-22T03:15:05;19.70;;;10.38;;
74624;SDS011;63131;52.298;8.056;2022-12-22T03:17:49;21.10;;;10.57;;
74624;SDS011;63131;52.298;8.056;2022-12-22T03:20:33;17.30;;;10.65;;
74624;SDS011;63131;52.298;8.056;2022-12-22T03:23:17;16.55;;;9.20;;
74624;SDS011;63131;52.298;8.056;2022-12-22T03:26:01;20.90;;;10.43;;
74624;SDS011;63131;52.298;8.056;2022-12-22T03:28:27;19.85;;;9.95;;
74624;SDS011;63131;52.298;8.056;2022-12-22T03:30:57;18.88;;;10.68;;
74624;SDS011;63131;52.298;8.056;2022-12-22T03:33:29;18.00;;;9.50;;
74624;SDS011;63131;52.298;8.056;2022-12-22T03:35:55;21.20;;;10.38;;
74624;SDS011;63131;52.298;8.056;2022-12-22T03:38:21;18.75;;;10.50;;
74624;SDS011;63131;52.298;8.056;2022-12-22T03:40:46;19.08;;;9.60;;
74624;SDS011;63131;52.298;8.056;2022-12-22T03:43:12;17.90;;;9.32;;
74624;SDS011;63131;52.298;8.056;2022-12-22T03:45:57;20.60;;;9.30;;
74624;SDS011;63131;52.298;8.056;2022-12-22T03:48:41;18.60;;;8.93;;
74624;SDS011;63131;52.298;8.056;2022-12-22T03:51:07;18.35;;;9.50;;
74624;SDS011;63131;52.298;8.056;2022-12-22T03:53:33;18.88;;;10.05;;
74624;SDS011;63131;52.298;8.056;2022-12-22T03:55:58;18.77;;;10.27;;
74624;SDS011;63131;52.298;8.056;2022-12-22T03:58:24;21.15;;;10.10;;
74624;SDS011;63131;52.298;8.056;2022-12-22T04:00:49;19.10;;;10.23;;
74624;SDS011;63131;52.298;8.056;2022-12-22T04:03:14;18.42;;;10.20;;
74624;SDS011;63131;52.298;8.056;2022-12-22T04:05:40;19.35;;;9.75;;
74624;SDS011;63131;52.298;8.056;2022-12-22T04:08:05;19.63;;;9.80;;
74624;SDS011;63131;52.298;8.056;2022-12-22T04:10:31;19.92;;;9.55;;
74624;SDS011;63131;52.298;8.056;2022-12-22T04:13:14;20.85;;;10.02;;
74624;SDS011;63131;52.298;8.056;2022-12-22T04:15:40;19.13;;;9.90;;
74624;SDS011;63131;52.298;8.056;2022-12-22T04:18:05;19.77;;;10.45;;
74624;SDS011;63131;52.298;8.056;2022-12-22T04:20:30;21.25;;;11.05;;
74624;SDS011;63131;52.298;8.056;2022-12-22T04:22:56;23.25;;;10.43;;
74624;SDS011;63131;52.298;8.056;2022-12-22T04:25:22;20.83;;;10.45;;
74624;SDS011;63131;52.298;8.056;2022-12-22T04:27:48;19.30;;;9.48;;
74624;SDS011;63131;52.298;8.056;2022-12-22T04:30:14;17.65;;;9.95;;
74624;SDS011;63131;52.298;8.056;2022-12-22T04:32:39;19.58;;;10.15;;
74624;SDS011;63131;52.298;8.056;2022-12-22T04:35:05;18.90;;;8.93;;
74624;SDS011;63131;52.298;8.056;2022-12-22T04:37:31;18.27;;;9.20;;
74624;SDS011;63131;52.298;8.056;2022-12-22T04:39:56;17.88;;;9.13;;
74624;SDS011;63131;52.298;8.056;2022-12-22T04:42:22;18.60;;;9.55;;
74624;SDS011;63131;52.298;8.056;2022-12-22T04:44:47;19.02;;;9.50;;
74624;SDS011;63131;52.298;8.056;2022-12-22T04:47:13;19.92;;;9.93;;
74624;SDS011;63131;52.298;8.056;2022-12-22T04:49:38;17.90;;;8.60;;
74624;SDS011;63131;52.298;8.056;2022-12-22T04:52:04;19.63;;;8.50;;
74624;SDS011;63131;52.298;8.056;2022-12-22T04:54:29;19.25;;;9.32;;
74624;SDS011;63131;52.298;8.056;2022-12-22T04:56:54;16.20;;;8.73;;
74624;SDS011;63131;52.298;8.056;2022-12-22T04:59:20;15.98;;;7.80;;
74624;SDS011;63131;52.298;8.056;2022-12-22T05:01:45;16.85;;;7.95;;
74624;SDS011;63131;52.298;8.056;2022-12-22T05:04:10;13.93;;;6.95;;
74624;SDS011;63131;52.298;8.056;2022-12-22T05:06:36;15.75;;;7.65;;
74624;SDS011;63131;52.298;8.056;2022-12-22T05:09:01;15.05;;;7.45;;
74624;SDS011;63131;52.298;8.056;2022-12-22T05:11:26;15.15;;;7.05;;
74624;SDS011;63131;52.298;8.056;2022-12-22T05:13:52;14.52;;;6.95;;
74624;SDS011;63131;52.298;8.056;2022-12-22T05:16:17;14.18;;;6.97;;
74624;SDS011;63131;52.298;8.056;2022-12-22T05:18:43;15.90;;;8.25;;
74624;SDS011;63131;52.298;8.056;2022-12-22T05:21:16;15.65;;;7.80;;
74624;SDS011;63131;52.298;8.056;2022-12-22T05:23:43;14.13;;;6.70;;
74624;SDS011;63131;52.298;8.056;2022-12-22T05:26:08;14.30;;;7.15;;
74624;SDS011;63131;52.298;8.056;2022-12-22T05:28:34;15.63;;;7.00;;
74624;SDS011;63131;52.298;8.056;2022-12-22T05:31:13;16.02;;;9.02;;
74624;SDS011;63131;52.298;8.056;2022-12-22T05:33:40;16.38;;;7.35;;
74624;SDS011;63131;52.298;8.056;2022-12-22T05:36:05;14.43;;;7.75;;
74624;SDS011;63131;52.298;8.056;2022-12-22T05:38:31;15.80;;;7.93;;
74624;SDS011;63131;52.298;8.056;2022-12-22T05:40:56;17.25;;;8.05;;
74624;SDS011;63131;52.298;8.056;2022-12-22T05:43:21;16.55;;;7.85;;
74624;SDS011;63131;52.298;8.056;2022-12-22T05:45:47;15.60;;;8.02;;
74624;SDS011;63131;52.298;8.056;2022-12-22T05:48:12;15.45;;;7.95;;
74624;SDS011;63131;52.298;8.056;2022-12-22T05:50:37;16.00;;;8.38;;
74624;SDS011;63131;52.298;8.056;2022-12-22T05:53:04;14.45;;;7.50;;
74624;SDS011;63131;52.298;8.056;2022-12-22T05:55:29;15.52;;;7.82;;
74624;SDS011;63131;52.298;8.056;2022-12-22T05:57:55;19.08;;;9.00;;
74624;SDS011;63131;52.298;8.056;2022-12-22T06:00:20;14.55;;;7.95;;
74624;SDS011;63131;52.298;8.056;2022-12-22T06:02:46;14.50;;;7.70;;
74624;SDS011;63131;52.298;8.056;2022-12-22T06:05:12;15.18;;;7.13;;
74624;SDS011;63131;52.298;8.056;2022-12-22T06:07:39;16.33;;;8.68;;
74624;SDS011;63131;52.298;8.056;2022-12-22T06:10:05;16.42;;;8.23;;
74624;SDS011;63131;52.298;8.056;2022-12-22T06:12:31;16.35;;;7.68;;
74624;SDS011;63131;52.298;8.056;2022-12-22T06:14:56;15.52;;;8.73;;
74624;SDS011;63131;52.298;8.056;2022-12-22T06:17:21;16.92;;;8.18;;
74624;SDS011;63131;52.298;8.056;2022-12-22T06:19:47;17.38;;;8.10;;
74624;SDS011;63131;52.298;8.056;2022-12-22T06:22:12;17.63;;;8.90;;
74624;SDS011;63131;52.298;8.056;2022-12-22T06:24:38;16.77;;;8.48;;
74624;SDS011;63131;52.298;8.056;2022-12-22T06:27:03;16.13;;;8.30;;
74624;SDS011;63131;52.298;8.056;2022-12-22T06:29:28;14.90;;;7.85;;
74624;SDS011;63131;52.298;8.056;2022-12-22T06:31:54;15.07;;;8.15;;
74624;SDS011;63131;52.298;8.056;2022-12-22T06:34:19;16.15;;;8.63;;
74624;SDS011;63131;52.298;8.056;2022-12-22T06:36:45;15.35;;;7.90;;
74624;SDS011;63131;52.298;8.056;2022-12-22T06:39:11;17.40;;;8.63;;
74624;SDS011;63131;52.298;8.056;2022-12-22T06:41:37;17.65;;;8.82;;
74624;SDS011;63131;52.298;8.056;2022-12-22T06:44:21;14.25;;;7.25;;
74624;SDS011;63131;52.298;8.056;2022-12-22T06:46:47;16.58;;;7.70;;
74624;SDS011;63131;52.298;8.056;2022-12-22T06:49:12;15.80;;;7.65;;
74624;SDS011;63131;52.298;8.056;2022-12-22T06:51:37;19.20;;;8.77;;
74624;SDS011;63131;52.298;8.056;2022-12-22T06:54:03;17.90;;;8.82;;
74624;SDS011;63131;52.298;8.056;2022-12-22T06:56:28;19.80;;;9.77;;
74624;SDS011;63131;52.298;8.056;2022-12-22T06:58:54;22.42;;;10.40;;
74624;SDS011;63131;52.298;8.056;2022-12-22T07:01:19;18.60;;;9.23;;
74624;SDS011;63131;52.298;8.056;2022-12-22T07:03:44;19.35;;;10.02;;
74624;SDS011;63131;52.298;8.056;2022-12-22T07:06:10;17.88;;;9.98;;
74624;SDS011;63131;52.298;8.056;2022-12-22T07:08:35;18.45;;;8.80;;
74624;SDS011;63131;52.298;8.056;2022-12-22T07:11:01;19.90;;;8.23;;
74624;SDS011;63131;52.298;8.056;2022-12-22T07:13:33;18.95;;;9.85;;
74624;SDS011;63131;52.298;8.056;2022-12-22T07:15:59;18.52;;;9.48;;
74624;SDS011;63131;52.298;8.056;2022-12-22T07:18:26;19.33;;;9.27;;
74624;SDS011;63131;52.298;8.056;2022-12-22T07:20:52;18.20;;;9.82;;
74624;SDS011;63131;52.298;8.056;2022-12-22T07:23:17;21.15;;;9.45;;
74624;SDS011;63131;52.298;8.056;2022-12-22T07:25:43;19.70;;;9.23;;
74624;SDS011;63131;52.298;8.056;2022-12-22T07:28:08;17.02;;;8.95;;
74624;SDS011;63131;52.298;8.056;2022-12-22T07:30:33;18.15;;;9.25;;
74624;SDS011;63131;52.298;8.056;2022-12-22T07:33:00;18.88;;;8.50;;
74624;SDS011;63131;52.298;8.056;2022-12-22T07:35:27;15.43;;;7.97;;
74624;SDS011;63131;52.298;8.056;2022-12-22T07:37:52;17.80;;;8.65;;
74624;SDS011;63131;52.298;8.056;2022-12-22T07:40:17;17.85;;;8.25;;
74624;SDS011;63131;52.298;8.056;2022-12-22T07:42:43;17.20;;;8.20;;
74624;SDS011;63131;52.298;8.056;2022-12-22T07:45:09;16.27;;;7.95;;
74624;SDS011;63131;52.298;8.056;2022-12-22T07:47:38;18.02;;;9.02;;
74624;SDS011;63131;52.298;8.056;2022-12-22T07:50:04;16.48;;;8.30;;
74624;SDS011;63131;52.298;8.056;2022-12-22T07:52:59;19.60;;;9.10;;
74624;SDS011;63131;52.298;8.056;2022-12-22T07:58:13;18.52;;;8.85;;
74624;SDS011;63131;52.298;8.056;2022-12-22T08:00:38;20.08;;;9.20;;
74624;SDS011;63131;52.298;8.056;2022-12-22T08:03:03;21.63;;;10.40;;
74624;SDS011;63131;52.298;8.056;2022-12-22T08:05:30;22.60;;;10.10;;
74624;SDS011;63131;52.298;8.056;2022-12-22T08:07:55;22.08;;;10.38;;
74624;SDS011;63131;52.298;8.056;2022-12-22T08:10:21;24.92;;;11.55;;
74624;SDS011;63131;52.298;8.056;2022-12-22T08:12:46;24.10;;;11.02;;
74624;SDS011;63131;52.298;8.056;2022-12-22T08:15:11;24.02;;;9.85;;
74624;SDS011;63131;52.298;8.056;2022-12-22T08:17:37;25.92;;;10.77;;
74624;SDS011;63131;52.298;8.056;2022-12-22T08:20:03;24.45;;;9.25;;
74624;SDS011;63131;52.298;8.056;2022-12-22T08:24:55;19.08;;;8.68;;
74624;SDS011;63131;52.298;8.056;2022-12-22T08:27:37;19.42;;;8.38;;
74624;SDS011;63131;52.298;8.056;2022-12-22T08:30:07;19.98;;;9.30;;
74624;SDS011;63131;52.298;8.056;2022-12-22T08:32:33;20.05;;;7.88;;
74624;SDS011;63131;52.298;8.056;2022-12-22T08:35:00;18.23;;;8.43;;
74624;SDS011;63131;52.298;8.056;2022-12-22T08:37:25;23.70;;;9.93;;
74624;SDS011;63131;52.298;8.056;2022-12-22T08:39:54;22.95;;;8.85;;
74624;SDS011;63131;52.298;8.056;2022-12-22T08:42:23;19.77;;;8.35;;
74624;SDS011;63131;52.298;8.056;2022-12-22T08:47:17;20.52;;;8.32;;
74624;SDS011;63131;52.298;8.056;2022-12-22T08:49:46;18.70;;;7.80;;
74624;SDS011;63131;52.298;8.056;2022-12-22T08:52:11;22.95;;;8.15;;
74624;SDS011;63131;52.298;8.056;2022-12-22T08:54:37;22.30;;;8.38;;
74624;SDS011;63131;52.298;8.056;2022-12-22T08:57:02;21.63;;;8.25;;
74624;SDS011;63131;52.298;8.056;2022-12-22T08:59:28;19.10;;;7.43;;
74624;SDS011;63131;52.298;8.056;2022-12-22T09:01:53;22.77;;;9.02;;
74624;SDS011;63131;52.298;8.056;2022-12-22T09:04:19;22.73;;;8.15;;
74624;SDS011;63131;52.298;8.056;2022-12-22T09:06:46;23.40;;;7.80;;
74624;SDS011;63131;52.298;8.056;2022-12-22T09:09:11;24.58;;;8.70;;
74624;SDS011;63131;52.298;8.056;2022-12-22T09:14:03;21.30;;;7.50;;
74624;SDS011;63131;52.298;8.056;2022-12-22T09:16:30;16.75;;;6.60;;
74624;SDS011;63131;52.298;8.056;2022-12-22T09:18:56;24.20;;;7.88;;
74624;SDS011;63131;52.298;8.056;2022-12-22T09:21:22;21.15;;;8.75;;
74624;SDS011;63131;52.298;8.056;2022-12-22T09:23:48;20.80;;;8.32;;
74624;SDS011;63131;52.298;8.056;2022-12-22T09:26:15;18.98;;;7.43;;
74624;SDS011;63131;52.298;8.056;2022-12-22T09:28:41;19.60;;;8.32;;
74624;SDS011;63131;52.298;8.056;2022-12-22T09:31:07;18.92;;;7.57;;
74624;SDS011;63131;52.298;8.056;2022-12-22T09:33:32;20.27;;;8.30;;
74624;SDS011;63131;52.298;8.056;2022-12-22T09:36:03;19.70;;;7.43;;
74624;SDS011;63131;52.298;8.056;2022-12-22T09:38:33;20.23;;;6.63;;
74624;SDS011;63131;52.298;8.056;2022-12-22T09:40:58;16.42;;;7.20;;
74624;SDS011;63131;52.298;8.056;2022-12-22T09:43:26;22.13;;;7.82;;
74624;SDS011;63131;52.298;8.056;2022-12-22T09:45:55;19.50;;;7.47;;
74624;SDS011;63131;52.298;8.056;2022-12-22T09:48:24;17.92;;;7.00;;
74624;SDS011;63131;52.298;8.056;2022-12-22T09:50:58;19.13;;;6.97;;
74624;SDS011;63131;52.298;8.056;2022-12-22T09:53:23;18.23;;;6.13;;
74624;SDS011;63131;52.298;8.056;2022-12-22T09:55:49;16.92;;;6.75;;
74624;SDS011;63131;52.298;8.056;2022-12-22T10:00:43;17.27;;;7.47;;
74624;SDS011;63131;52.298;8.056;2022-12-22T10:08:36;19.23;;;7.32;;
74624;SDS011;63131;52.298;8.056;2022-12-22T10:11:02;18.52;;;7.13;;
74624;SDS011;63131;52.298;8.056;2022-12-22T10:13:28;20.23;;;8.25;;
74624;SDS011;63131;52.298;8.056;2022-12-22T10:15:53;17.15;;;8.00;;
74624;SDS011;63131;52.298;8.056;2022-12-22T10:18:21;20.40;;;8.23;;
74624;SDS011;63131;52.298;8.056;2022-12-22T10:21:10;18.15;;;7.30;;
74624;SDS011;63131;52.298;8.056;2022-12-22T10:23:38;18.25;;;8.20;;
74624;SDS011;63131;52.298;8.056;2022-12-22T10:26:22;17.92;;;7.75;;
74624;SDS011;63131;52.298;8.056;2022-12-22T10:31:18;18.48;;;7.65;;
74624;SDS011;63131;52.298;8.056;2022-12-22T10:33:45;18.30;;;8.88;;
74624;SDS011;63131;52.298;8.056;2022-12-22T10:36:12;19.13;;;8.52;;
74624;SDS011;63131;52.298;8.056;2022-12-22T10:38:39;24.58;;;8.95;;
74624;SDS011;63131;52.298;8.056;2022-12-22T10:41:20;20.85;;;7.43;;
74624;SDS011;63131;52.298;8.056;2022-12-22T10:43:50;20.88;;;9.35;;
74624;SDS011;63131;52.298;8.056;2022-12-22T10:46:17;20.00;;;8.95;;
74624;SDS011;63131;52.298;8.056;2022-12-22T10:48:43;23.42;;;8.98;;
74624;SDS011;63131;52.298;8.056;2022-12-22T10:51:10;22.02;;;9.63;;
74624;SDS011;63131;52.298;8.056;2022-12-22T10:53:44;24.42;;;10.48;;
74624;SDS011;63131;52.298;8.056;2022-12-22T10:58:54;18.58;;;8.23;;
74624;SDS011;63131;52.298;8.056;2022-12-22T11:01:25;18.45;;;7.95;;
74624;SDS011;63131;52.298;8.056;2022-12-22T11:03:52;21.05;;;9.35;;
74624;SDS011;63131;52.298;8.056;2022-12-22T11:06:17;20.50;;;8.52;;
74624;SDS011;63131;52.298;8.056;2022-12-22T11:08:43;21.58;;;8.35;;
74624;SDS011;63131;52.298;8.056;2022-12-22T11:11:10;19.15;;;8.15;;
74624;SDS011;63131;52.298;8.056;2022-12-22T11:16:25;16.75;;;7.22;;
74624;SDS011;63131;52.298;8.056;2022-12-22T11:24:09;15.15;;;7.05;;
74624;SDS011;63131;52.298;8.056;2022-12-22T11:26:42;15.57;;;7.25;;
74624;SDS011;63131;52.298;8.056;2022-12-22T11:32:32;15.82;;;6.57;;
74624;SDS011;63131;52.298;8.056;2022-12-22T11:35:12;16.80;;;6.90;;
74624;SDS011;63131;52.298;8.056;2022-12-22T11:51:01;15.40;;;7.22;;
74624;SDS011;63131;52.298;8.056;2022-12-22T11:58:56;15.93;;;6.50;;
74624;SDS011;63131;52.298;8.056;2022-12-22T12:04:36;17.20;;;6.47;;
74624;SDS011;63131;52.298;8.056;2022-12-22T12:07:24;13.82;;;6.72;;
74624;SDS011;63131;52.298;8.056;2022-12-22T12:12:23;14.98;;;4.75;;
74624;SDS011;63131;52.298;8.056;2022-12-22T12:29:18;10.63;;;3.70;;
74624;SDS011;63131;52.298;8.056;2022-12-22T12:31:50;12.07;;;4.68;;
74624;SDS011;63131;52.298;8.056;2022-12-22T12:34:19;12.05;;;4.60;;
74624;SDS011;63131;52.298;8.056;2022-12-22T12:37:02;13.57;;;4.63;;
74624;SDS011;63131;52.298;8.056;2022-12-22T12:44:59;11.05;;;3.78;;
74624;SDS011;63131;52.298;8.056;2022-12-22T12:47:33;10.25;;;3.90;;
74624;SDS011;63131;52.298;8.056;2022-12-22T12:55:29;11.73;;;3.50;;
74624;SDS011;63131;52.298;8.056;2022-12-22T12:57:54;13.15;;;4.60;;
74624;SDS011;63131;52.298;8.056;2022-12-22T13:02:55;11.68;;;3.45;;
74624;SDS011;63131;52.298;8.056;2022-12-22T13:08:04;9.60;;;3.17;;
74624;SDS011;63131;52.298;8.056;2022-12-22T13:10:33;8.27;;;2.75;;
74624;SDS011;63131;52.298;8.056;2022-12-22T13:13:00;10.23;;;3.28;;
74624;SDS011;63131;52.298;8.056;2022-12-22T13:15:35;11.23;;;3.65;;
74624;SDS011;63131;52.298;8.056;2022-12-22T13:18:03;10.45;;;3.85;;
74624;SDS011;63131;52.298;8.056;2022-12-22T13:20:36;11.70;;;3.95;;
74624;SDS011;63131;52.298;8.056;2022-12-22T13:23:03;11.40;;;4.40;;
74624;SDS011;63131;52.298;8.056;2022-12-22T13:25:39;11.00;;;4.03;;
74624;SDS011;63131;52.298;8.056;2022-12-22T13:28:10;10.38;;;3.90;;
74624;SDS011;63131;52.298;8.056;2022-12-22T13:30:44;11.38;;;4.15;;
74624;SDS011;63131;52.298;8.056;2022-12-22T13:33:11;12.90;;;4.03;;
74624;SDS011;63131;52.298;8.056;2022-12-22T13:35:40;11.95;;;4.60;;
74624;SDS011;63131;52.298;8.056;2022-12-22T13:38:24;12.13;;;3.63;;
74624;SDS011;63131;52.298;8.056;2022-12-22T13:40:50;11.57;;;3.63;;
74624;SDS011;63131;52.298;8.056;2022-12-22T13:43:15;9.68;;;4.00;;
74624;SDS011;63131;52.298;8.056;2022-12-22T13:45:42;23.67;;;5.35;;
74624;SDS011;63131;52.298;8.056;2022-12-22T13:48:17;10.60;;;4.03;;
74624;SDS011;63131;52.298;8.056;2022-12-22T13:50:53;15.40;;;4.68;;
74624;SDS011;63131;52.298;8.056;2022-12-22T13:53:31;10.82;;;4.45;;
74624;SDS011;63131;52.298;8.056;2022-12-22T13:55:58;10.48;;;3.90;;
74624;SDS011;63131;52.298;8.056;2022-12-22T13:58:25;10.52;;;4.38;;
74624;SDS011;63131;52.298;8.056;2022-12-22T14:00:59;12.65;;;3.95;;
74624;SDS011;63131;52.298;8.056;2022-12-22T14:03:34;13.02;;;5.07;;
74624;SDS011;63131;52.298;8.056;2022-12-22T14:06:16;12.70;;;4.95;;
74624;SDS011;63131;52.298;8.056;2022-12-22T14:08:44;11.80;;;3.58;;
74624;SDS011;63131;52.298;8.056;2022-12-22T14:11:10;13.75;;;4.95;;
74624;SDS011;63131;52.298;8.056;2022-12-22T14:13:35;14.13;;;5.10;;
74624;SDS011;63131;52.298;8.056;2022-12-22T14:16:03;11.02;;;4.32;;
74624;SDS011;63131;52.298;8.056;2022-12-22T14:18:29;14.65;;;5.10;;
74624;SDS011;63131;52.298;8.056;2022-12-22T14:20:55;12.45;;;4.65;;
74624;SDS011;63131;52.298;8.056;2022-12-22T14:23:21;11.98;;;5.15;;
74624;SDS011;63131;52.298;8.056;2022-12-22T14:25:52;13.60;;;5.25;;
74624;SDS011;63131;52.298;8.056;2022-12-22T14:30:48;12.70;;;5.00;;
74624;SDS011;63131;52.298;8.056;2022-12-22T14:38:43;13.50;;;5.05;;
74624;SDS011;63131;52.298;8.056;2022-12-22T14:41:10;13.02;;;5.82;;
74624;SDS011;63131;52.298;8.056;2022-12-22T14:43:57;14.35;;;5.28;;
74624;SDS011;63131;52.298;8.056;2022-12-22T14:46:23;13.85;;;6.00;;
74624;SDS011;63131;52.298;8.056;2022-12-22T14:48:48;14.35;;;5.72;;
74624;SDS011;63131;52.298;8.056;2022-12-22T14:51:17;11.00;;;4.68;;
74624;SDS011;63131;52.298;8.056;2022-12-22T14:53:47;15.23;;;5.50;;
74624;SDS011;63131;52.298;8.056;2022-12-22T14:56:14;15.80;;;6.18;;
74624;SDS011;63131;52.298;8.056;2022-12-22T14:58:42;13.02;;;5.72;;
74624;SDS011;63131;52.298;8.056;2022-12-22T15:03:37;15.02;;;5.57;;
74624;SDS011;63131;52.298;8.056;2022-12-22T15:09:36;14.85;;;6.70;;
74624;SDS011;63131;52.298;8.056;2022-12-22T15:11:40;15.93;;;5.82;;
74624;SDS011;63131;52.298;8.056;2022-12-22T15:14:12;11.85;;;5.40;;
74624;SDS011;63131;52.298;8.056;2022-12-22T15:16:39;16.30;;;6.82;;
74624;SDS011;63131;52.298;8.056;2022-12-22T15:19:05;13.00;;;5.68;;
74624;SDS011;63131;52.298;8.056;2022-12-22T15:21:30;14.85;;;5.38;;
74624;SDS011;63131;52.298;8.056;2022-12-22T15:23:56;18.33;;;6.22;;
74624;SDS011;63131;52.298;8.056;2022-12-22T15:26:21;14.25;;;6.47;;
74624;SDS011;63131;52.298;8.056;2022-12-22T15:28:46;13.60;;;5.03;;
74624;SDS011;63131;52.298;8.056;2022-12-22T15:31:13;14.40;;;5.63;;
74624;SDS011;63131;52.298;8.056;2022-12-22T15:33:39;13.52;;;4.78;;
74624;SDS011;63131;52.298;8.056;2022-12-22T15:36:05;13.82;;;4.93;;
74624;SDS011;63131;52.298;8.056;2022-12-22T15:38:32;14.60;;;5.10;;
74624;SDS011;63131;52.298;8.056;2022-12-22T15:40:58;12.65;;;4.85;;
74624;SDS011;63131;52.298;8.056;2022-12-22T15:43:23;12.63;;;4.57;;
74624;SDS011;63131;52.298;8.056;2022-12-22T15:45:48;13.95;;;5.28;;
74624;SDS011;63131;52.298;8.056;2022-12-22T15:48:21;12.27;;;4.35;;
74624;SDS011;63131;52.298;8.056;2022-12-22T15:50:49;14.23;;;5.13;;
74624;SDS011;63131;52.298;8.056;2022-12-22T15:53:16;15.10;;;4.30;;
74624;SDS011;63131;52.298;8.056;2022-12-22T15:55:43;14.02;;;4.80;;
74624;SDS011;63131;52.298;8.056;2022-12-22T15:58:15;15.45;;;5.00;;
74624;SDS011;63131;52.298;8.056;2022-12-22T16:00:44;13.82;;;4.60;;
74624;SDS011;63131;52.298;8.056;2022-12-22T16:03:10;14.68;;;4.93;;
74624;SDS011;63131;52.298;8.056;2022-12-22T16:05:36;14.23;;;4.97;;
74624;SDS011;63131;52.298;8.056;2022-12-22T16:08:02;14.60;;;6.07;;
74624;SDS011;63131;52.298;8.056;2022-12-22T16:10:31;12.38;;;4.75;;
74624;SDS011;63131;52.298;8.056;2022-12-22T16:12:59;16.27;;;6.00;;
74624;SDS011;63131;52.298;8.056;2022-12-22T16:15:28;12.73;;;5.30;;
74624;SDS011;63131;52.298;8.056;2022-12-22T16:17:55;13.45;;;5.88;;
74624;SDS011;63131;52.298;8.056;2022-12-22T16:20:21;17.27;;;6.38;;
74624;SDS011;63131;52.298;8.056;2022-12-22T16:22:47;18.52;;;7.47;;
74624;SDS011;63131;52.298;8.056;2022-12-22T16:25:14;16.33;;;6.60;;
74624;SDS011;63131;52.298;8.056;2022-12-22T16:27:41;17.55;;;7.65;;
74624;SDS011;63131;52.298;8.056;2022-12-22T16:30:10;17.70;;;6.57;;
74624;SDS011;63131;52.298;8.056;2022-12-22T16:32:37;18.27;;;7.70;;
74624;SDS011;63131;52.298;8.056;2022-12-22T16:37:35;20.67;;;8.60;;
74624;SDS011;63131;52.298;8.056;2022-12-22T16:40:01;17.63;;;7.00;;
74624;SDS011;63131;52.298;8.056;2022-12-22T16:42:28;15.25;;;7.07;;
74624;SDS011;63131;52.298;8.056;2022-12-22T16:44:54;17.90;;;7.22;;
74624;SDS011;63131;52.298;8.056;2022-12-22T16:47:21;16.63;;;7.50;;
74624;SDS011;63131;52.298;8.056;2022-12-22T16:49:50;18.80;;;7.18;;
74624;SDS011;63131;52.298;8.056;2022-12-22T16:52:20;16.75;;;7.85;;
74624;SDS011;63131;52.298;8.056;2022-12-22T16:54:49;18.42;;;7.20;;
74624;SDS011;63131;52.298;8.056;2022-12-22T16:57:15;18.05;;;7.25;;
74624;SDS011;63131;52.298;8.056;2022-12-22T16:59:40;18.25;;;8.27;;
74624;SDS011;63131;52.298;8.056;2022-12-22T17:02:23;17.20;;;7.97;;
74624;SDS011;63131;52.298;8.056;2022-12-22T17:04:52;17.13;;;7.47;;